sensor_id;sensor_type;location;lat;lon;timestamp;P1;durP1;ratioP1;P2;durP2;ratioP2
36709;SDS011;22694;51.040;3.684;2022-12-19T00:02:04;6.47;;;3.95;;
36709;SDS011;22694;51.040;3.684;2022-12-19T00:04:30;4.28;;;3.75;;
36709;SDS011;22694;51.040;3.684;2022-12-19T00:06:56;3.92;;;3.53;;
36709;SDS011;22694;51.040;3.684;2022-12-19T00:09:22;5.10;;;3.33;;
36709;SDS011;22694;51.040;3.684;2022-12-19T00:11:49;4.07;;;3.53;;
36709;SDS011;22694;51.040;3.684;2022-12-19T00:14:14;5.47;;;3.90;;
36709;SDS011;22694;51.040;3.684;2022-12-19T00:16:40;4.20;;;3.67;;
36709;SDS011;22694;51.040;3.684;2022-12-19T00:19:06;4.22;;;3.58;;
36709;SDS011;22694;51.040;3.684;2022-12-19T00:21:32;3.63;;;3.08;;
36709;SDS011;22694;51.040;3.684;2022-12-19T00:23:58;3.78;;;3.20;;
36709;SDS011;22694;51.040;3.684;2022-12-19T00:26:25;3.83;;;3.28;;
36709;SDS011;22694;51.040;3.684;2022-12-19T00:28:55;3.85;;;3.42;;
36709;SDS011;22694;51.040;3.684;2022-12-19T00:31:22;3.78;;;3.38;;
36709;SDS011;22694;51.040;3.684;2022-12-19T00:33:49;4.35;;;3.33;;
36709;SDS011;22694;51.040;3.684;2022-12-19T00:36:16;4.63;;;3.22;;
36709;SDS011;22694;51.040;3.684;2022-12-19T00:38:44;3.58;;;2.90;;
36709;SDS011;22694;51.040;3.684;2022-12-19T00:41:29;3.65;;;2.95;;
36709;SDS011;22694;51.040;3.684;2022-12-19T00:43:57;4.32;;;2.80;;
36709;SDS011;22694;51.040;3.684;2022-12-19T00:46:25;3.55;;;2.53;;
36709;SDS011;22694;51.040;3.684;2022-12-19T00:48:51;2.50;;;2.30;;
36709;SDS011;22694;51.040;3.684;2022-12-19T00:51:18;3.42;;;2.75;;
36709;SDS011;22694;51.040;3.684;2022-12-19T00:53:47;3.25;;;2.72;;
36709;SDS011;22694;51.040;3.684;2022-12-19T00:56:18;3.85;;;3.00;;
36709;SDS011;22694;51.040;3.684;2022-12-19T00:58:45;3.92;;;3.15;;
36709;SDS011;22694;51.040;3.684;2022-12-19T01:01:15;3.47;;;2.45;;
36709;SDS011;22694;51.040;3.684;2022-12-19T01:03:42;2.92;;;2.47;;
36709;SDS011;22694;51.040;3.684;2022-12-19T01:06:08;4.07;;;2.60;;
36709;SDS011;22694;51.040;3.684;2022-12-19T01:08:34;2.45;;;2.10;;
36709;SDS011;22694;51.040;3.684;2022-12-19T01:11:00;2.65;;;2.42;;
36709;SDS011;22694;51.040;3.684;2022-12-19T01:13:27;2.25;;;2.05;;
36709;SDS011;22694;51.040;3.684;2022-12-19T01:15:54;3.80;;;2.55;;
36709;SDS011;22694;51.040;3.684;2022-12-19T01:18:20;2.67;;;2.20;;
36709;SDS011;22694;51.040;3.684;2022-12-19T01:20:46;2.63;;;2.10;;
36709;SDS011;22694;51.040;3.684;2022-12-19T01:23:12;2.80;;;2.20;;
36709;SDS011;22694;51.040;3.684;2022-12-19T01:25:41;3.03;;;1.75;;
36709;SDS011;22694;51.040;3.684;2022-12-19T01:28:12;4.10;;;2.13;;
36709;SDS011;22694;51.040;3.684;2022-12-19T01:30:39;3.40;;;2.40;;
36709;SDS011;22694;51.040;3.684;2022-12-19T01:33:05;2.75;;;2.28;;
36709;SDS011;22694;51.040;3.684;2022-12-19T01:35:32;3.13;;;2.05;;
36709;SDS011;22694;51.040;3.684;2022-12-19T01:37:58;2.05;;;1.88;;
36709;SDS011;22694;51.040;3.684;2022-12-19T01:40:25;2.60;;;2.03;;
36709;SDS011;22694;51.040;3.684;2022-12-19T01:42:51;2.15;;;1.92;;
36709;SDS011;22694;51.040;3.684;2022-12-19T01:48:12;2.75;;;2.20;;
36709;SDS011;22694;51.040;3.684;2022-12-19T01:53:15;2.35;;;2.15;;
36709;SDS011;22694;51.040;3.684;2022-12-19T01:55:42;2.35;;;2.05;;
36709;SDS011;22694;51.040;3.684;2022-12-19T01:58:09;2.85;;;2.33;;
36709;SDS011;22694;51.040;3.684;2022-12-19T02:00:36;2.78;;;2.17;;
36709;SDS011;22694;51.040;3.684;2022-12-19T02:03:09;2.80;;;2.17;;
36709;SDS011;22694;51.040;3.684;2022-12-19T02:05:42;2.78;;;2.08;;
36709;SDS011;22694;51.040;3.684;2022-12-19T02:08:08;2.30;;;2.10;;
36709;SDS011;22694;51.040;3.684;2022-12-19T02:10:35;2.13;;;1.73;;
36709;SDS011;22694;51.040;3.684;2022-12-19T02:13:01;2.60;;;2.20;;
36709;SDS011;22694;51.040;3.684;2022-12-19T02:15:27;3.13;;;2.33;;
36709;SDS011;22694;51.040;3.684;2022-12-19T02:23:18;2.25;;;2.05;;
36709;SDS011;22694;51.040;3.684;2022-12-19T02:31:30;2.30;;;2.00;;
36709;SDS011;22694;51.040;3.684;2022-12-19T02:34:09;2.60;;;1.92;;
36709;SDS011;22694;51.040;3.684;2022-12-19T02:36:52;2.20;;;2.00;;
36709;SDS011;22694;51.040;3.684;2022-12-19T02:39:31;2.45;;;2.15;;
36709;SDS011;22694;51.040;3.684;2022-12-19T02:41:58;3.85;;;2.42;;
36709;SDS011;22694;51.040;3.684;2022-12-19T02:44:36;2.63;;;2.10;;
36709;SDS011;22694;51.040;3.684;2022-12-19T02:47:10;3.38;;;2.30;;
36709;SDS011;22694;51.040;3.684;2022-12-19T02:49:37;2.13;;;1.80;;
36709;SDS011;22694;51.040;3.684;2022-12-19T02:52:10;2.85;;;2.20;;
36709;SDS011;22694;51.040;3.684;2022-12-19T02:54:42;2.35;;;2.10;;
36709;SDS011;22694;51.040;3.684;2022-12-19T03:00:07;2.28;;;2.00;;
36709;SDS011;22694;51.040;3.684;2022-12-19T03:02:46;2.20;;;1.73;;
36709;SDS011;22694;51.040;3.684;2022-12-19T03:08:17;2.30;;;2.10;;
36709;SDS011;22694;51.040;3.684;2022-12-19T03:10:58;3.28;;;2.17;;
36709;SDS011;22694;51.040;3.684;2022-12-19T03:13:28;3.08;;;2.00;;
36709;SDS011;22694;51.040;3.684;2022-12-19T03:15:56;2.40;;;2.05;;
36709;SDS011;22694;51.040;3.684;2022-12-19T03:18:23;1.83;;;1.65;;
36709;SDS011;22694;51.040;3.684;2022-12-19T03:23:33;2.75;;;2.10;;
36709;SDS011;22694;51.040;3.684;2022-12-19T03:26:04;2.50;;;2.00;;
36709;SDS011;22694;51.040;3.684;2022-12-19T03:31:24;2.50;;;2.00;;
36709;SDS011;22694;51.040;3.684;2022-12-19T03:33:54;2.45;;;2.03;;
36709;SDS011;22694;51.040;3.684;2022-12-19T03:36:40;3.13;;;2.20;;
36709;SDS011;22694;51.040;3.684;2022-12-19T03:39:09;2.50;;;2.10;;
36709;SDS011;22694;51.040;3.684;2022-12-19T03:41:36;2.03;;;1.83;;
36709;SDS011;22694;51.040;3.684;2022-12-19T03:44:24;2.30;;;1.83;;
36709;SDS011;22694;51.040;3.684;2022-12-19T03:46:57;2.13;;;1.92;;
36709;SDS011;22694;51.040;3.684;2022-12-19T03:49:29;2.38;;;1.83;;
36709;SDS011;22694;51.040;3.684;2022-12-19T03:51:59;2.53;;;1.92;;
36709;SDS011;22694;51.040;3.684;2022-12-19T03:54:39;3.10;;;1.40;;
36709;SDS011;22694;51.040;3.684;2022-12-19T03:59:54;4.47;;;1.73;;
36709;SDS011;22694;51.040;3.684;2022-12-19T04:02:24;2.13;;;1.40;;
36709;SDS011;22694;51.040;3.684;2022-12-19T04:04:51;5.93;;;1.98;;
36709;SDS011;22694;51.040;3.684;2022-12-19T04:07:21;3.10;;;1.95;;
36709;SDS011;22694;51.040;3.684;2022-12-19T04:09:48;2.22;;;1.83;;
36709;SDS011;22694;51.040;3.684;2022-12-19T04:12:23;2.95;;;2.00;;
36709;SDS011;22694;51.040;3.684;2022-12-19T04:14:54;3.40;;;1.88;;
36709;SDS011;22694;51.040;3.684;2022-12-19T04:20:07;3.42;;;1.70;;
36709;SDS011;22694;51.040;3.684;2022-12-19T04:22:40;2.30;;;1.40;;
36709;SDS011;22694;51.040;3.684;2022-12-19T04:25:17;2.97;;;1.30;;
36709;SDS011;22694;51.040;3.684;2022-12-19T04:27:59;2.25;;;1.98;;
36709;SDS011;22694;51.040;3.684;2022-12-19T04:30:29;1.85;;;1.70;;
36709;SDS011;22694;51.040;3.684;2022-12-19T04:32:56;3.65;;;2.25;;
36709;SDS011;22694;51.040;3.684;2022-12-19T04:35:23;3.70;;;1.83;;
36709;SDS011;22694;51.040;3.684;2022-12-19T04:37:50;6.65;;;2.05;;
36709;SDS011;22694;51.040;3.684;2022-12-19T04:40:16;4.78;;;2.50;;
36709;SDS011;22694;51.040;3.684;2022-12-19T04:42:42;1.73;;;1.48;;
36709;SDS011;22694;51.040;3.684;2022-12-19T04:45:07;3.80;;;2.30;;
36709;SDS011;22694;51.040;3.684;2022-12-19T04:47:33;2.40;;;1.77;;
36709;SDS011;22694;51.040;3.684;2022-12-19T04:49:59;5.90;;;2.50;;
36709;SDS011;22694;51.040;3.684;2022-12-19T04:52:25;4.15;;;1.90;;
36709;SDS011;22694;51.040;3.684;2022-12-19T04:54:50;2.25;;;1.60;;
36709;SDS011;22694;51.040;3.684;2022-12-19T04:57:16;2.33;;;1.85;;
36709;SDS011;22694;51.040;3.684;2022-12-19T04:59:42;2.88;;;2.05;;
36709;SDS011;22694;51.040;3.684;2022-12-19T05:02:07;1.77;;;1.58;;
36709;SDS011;22694;51.040;3.684;2022-12-19T05:04:33;3.83;;;2.28;;
36709;SDS011;22694;51.040;3.684;2022-12-19T05:06:58;3.17;;;2.05;;
36709;SDS011;22694;51.040;3.684;2022-12-19T05:09:24;2.03;;;1.83;;
36709;SDS011;22694;51.040;3.684;2022-12-19T05:11:50;2.65;;;2.05;;
36709;SDS011;22694;51.040;3.684;2022-12-19T05:14:15;2.88;;;2.15;;
36709;SDS011;22694;51.040;3.684;2022-12-19T05:16:41;4.05;;;2.00;;
36709;SDS011;22694;51.040;3.684;2022-12-19T05:19:06;2.58;;;2.20;;
36709;SDS011;22694;51.040;3.684;2022-12-19T05:21:32;3.28;;;1.95;;
36709;SDS011;22694;51.040;3.684;2022-12-19T05:23:58;3.58;;;1.98;;
36709;SDS011;22694;51.040;3.684;2022-12-19T05:26:23;2.33;;;2.13;;
36709;SDS011;22694;51.040;3.684;2022-12-19T05:28:49;2.58;;;2.10;;
36709;SDS011;22694;51.040;3.684;2022-12-19T05:31:16;2.17;;;1.98;;
36709;SDS011;22694;51.040;3.684;2022-12-19T05:33:44;1.45;;;1.10;;
36709;SDS011;22694;51.040;3.684;2022-12-19T05:36:11;2.00;;;1.17;;
36709;SDS011;22694;51.040;3.684;2022-12-19T05:38:37;3.60;;;1.30;;
36709;SDS011;22694;51.040;3.684;2022-12-19T05:41:11;3.53;;;1.63;;
36709;SDS011;22694;51.040;3.684;2022-12-19T05:43:38;3.88;;;1.27;;
36709;SDS011;22694;51.040;3.684;2022-12-19T05:46:04;1.55;;;1.42;;
36709;SDS011;22694;51.040;3.684;2022-12-19T05:48:30;2.55;;;1.65;;
36709;SDS011;22694;51.040;3.684;2022-12-19T05:50:56;2.28;;;1.70;;
36709;SDS011;22694;51.040;3.684;2022-12-19T05:53:22;3.67;;;1.77;;
36709;SDS011;22694;51.040;3.684;2022-12-19T05:55:48;3.63;;;1.77;;
36709;SDS011;22694;51.040;3.684;2022-12-19T05:58:14;3.13;;;1.80;;
36709;SDS011;22694;51.040;3.684;2022-12-19T06:00:40;3.10;;;1.90;;
36709;SDS011;22694;51.040;3.684;2022-12-19T06:03:06;2.88;;;1.80;;
36709;SDS011;22694;51.040;3.684;2022-12-19T06:05:35;1.88;;;1.52;;
36709;SDS011;22694;51.040;3.684;2022-12-19T06:08:01;3.58;;;1.75;;
36709;SDS011;22694;51.040;3.684;2022-12-19T06:10:27;2.25;;;1.85;;
36709;SDS011;22694;51.040;3.684;2022-12-19T06:12:52;2.50;;;1.45;;
36709;SDS011;22694;51.040;3.684;2022-12-19T06:15:18;1.38;;;1.20;;
36709;SDS011;22694;51.040;3.684;2022-12-19T06:17:44;2.75;;;1.30;;
36709;SDS011;22694;51.040;3.684;2022-12-19T06:20:09;3.97;;;1.65;;
36709;SDS011;22694;51.040;3.684;2022-12-19T06:22:35;2.85;;;1.83;;
36709;SDS011;22694;51.040;3.684;2022-12-19T06:25:01;1.95;;;1.50;;
36709;SDS011;22694;51.040;3.684;2022-12-19T06:27:26;2.97;;;2.03;;
36709;SDS011;22694;51.040;3.684;2022-12-19T06:29:52;2.42;;;1.58;;
36709;SDS011;22694;51.040;3.684;2022-12-19T06:32:17;2.50;;;1.95;;
36709;SDS011;22694;51.040;3.684;2022-12-19T06:34:43;3.17;;;1.80;;
36709;SDS011;22694;51.040;3.684;2022-12-19T06:37:10;1.92;;;1.50;;
36709;SDS011;22694;51.040;3.684;2022-12-19T06:39:35;3.22;;;1.63;;
36709;SDS011;22694;51.040;3.684;2022-12-19T06:42:01;3.03;;;1.75;;
36709;SDS011;22694;51.040;3.684;2022-12-19T06:44:46;1.60;;;1.40;;
36709;SDS011;22694;51.040;3.684;2022-12-19T06:47:11;2.70;;;1.67;;
36709;SDS011;22694;51.040;3.684;2022-12-19T06:49:37;4.43;;;1.77;;
36709;SDS011;22694;51.040;3.684;2022-12-19T06:52:02;2.67;;;1.80;;
36709;SDS011;22694;51.040;3.684;2022-12-19T06:54:28;2.78;;;1.85;;
36709;SDS011;22694;51.040;3.684;2022-12-19T06:56:54;1.75;;;1.63;;
36709;SDS011;22694;51.040;3.684;2022-12-19T06:59:19;3.67;;;2.00;;
36709;SDS011;22694;51.040;3.684;2022-12-19T07:01:53;3.33;;;1.73;;
36709;SDS011;22694;51.040;3.684;2022-12-19T07:04:24;2.50;;;1.67;;
36709;SDS011;22694;51.040;3.684;2022-12-19T07:06:56;3.67;;;1.67;;
36709;SDS011;22694;51.040;3.684;2022-12-19T07:09:22;1.60;;;1.50;;
36709;SDS011;22694;51.040;3.684;2022-12-19T07:11:48;2.00;;;1.70;;
36709;SDS011;22694;51.040;3.684;2022-12-19T07:14:14;1.63;;;1.25;;
36709;SDS011;22694;51.040;3.684;2022-12-19T07:16:40;4.72;;;2.00;;
36709;SDS011;22694;51.040;3.684;2022-12-19T07:19:06;3.22;;;1.65;;
36709;SDS011;22694;51.040;3.684;2022-12-19T07:21:33;3.40;;;1.60;;
36709;SDS011;22694;51.040;3.684;2022-12-19T07:23:59;1.83;;;1.70;;
36709;SDS011;22694;51.040;3.684;2022-12-19T07:26:25;2.05;;;1.48;;
36709;SDS011;22694;51.040;3.684;2022-12-19T07:28:51;2.00;;;1.40;;
36709;SDS011;22694;51.040;3.684;2022-12-19T07:31:18;2.17;;;1.60;;
36709;SDS011;22694;51.040;3.684;2022-12-19T07:33:43;3.00;;;1.75;;
36709;SDS011;22694;51.040;3.684;2022-12-19T07:36:09;1.90;;;1.45;;
36709;SDS011;22694;51.040;3.684;2022-12-19T07:38:35;2.35;;;1.55;;
36709;SDS011;22694;51.040;3.684;2022-12-19T07:41:00;3.47;;;1.30;;
36709;SDS011;22694;51.040;3.684;2022-12-19T07:43:26;2.78;;;1.50;;
36709;SDS011;22694;51.040;3.684;2022-12-19T07:45:53;3.80;;;1.55;;
36709;SDS011;22694;51.040;3.684;2022-12-19T07:48:19;1.90;;;1.45;;
36709;SDS011;22694;51.040;3.684;2022-12-19T07:50:44;1.60;;;1.50;;
36709;SDS011;22694;51.040;3.684;2022-12-19T07:53:11;2.97;;;1.90;;
36709;SDS011;22694;51.040;3.684;2022-12-19T07:55:37;2.72;;;1.80;;
36709;SDS011;22694;51.040;3.684;2022-12-19T07:58:02;1.45;;;1.30;;
36709;SDS011;22694;51.040;3.684;2022-12-19T08:00:28;1.88;;;1.73;;
36709;SDS011;22694;51.040;3.684;2022-12-19T08:02:55;1.63;;;1.50;;
36709;SDS011;22694;51.040;3.684;2022-12-19T08:05:23;2.00;;;1.63;;
36709;SDS011;22694;51.040;3.684;2022-12-19T08:07:48;1.88;;;1.67;;
36709;SDS011;22694;51.040;3.684;2022-12-19T08:10:17;2.03;;;1.60;;
36709;SDS011;22694;51.040;3.684;2022-12-19T08:12:43;1.90;;;1.60;;
36709;SDS011;22694;51.040;3.684;2022-12-19T08:15:09;1.65;;;1.55;;
36709;SDS011;22694;51.040;3.684;2022-12-19T08:17:35;1.63;;;1.52;;
36709;SDS011;22694;51.040;3.684;2022-12-19T08:20:02;1.50;;;1.25;;
36709;SDS011;22694;51.040;3.684;2022-12-19T08:22:29;1.60;;;1.42;;
36709;SDS011;22694;51.040;3.684;2022-12-19T08:24:55;1.95;;;1.73;;
36709;SDS011;22694;51.040;3.684;2022-12-19T08:27:21;1.67;;;1.50;;
36709;SDS011;22694;51.040;3.684;2022-12-19T08:29:47;3.13;;;1.50;;
36709;SDS011;22694;51.040;3.684;2022-12-19T08:32:13;1.33;;;1.23;;
36709;SDS011;22694;51.040;3.684;2022-12-19T08:34:39;1.80;;;1.38;;
36709;SDS011;22694;51.040;3.684;2022-12-19T08:37:05;1.55;;;1.35;;
36709;SDS011;22694;51.040;3.684;2022-12-19T08:39:31;1.60;;;1.40;;
36709;SDS011;22694;51.040;3.684;2022-12-19T08:41:57;1.35;;;1.25;;
36709;SDS011;22694;51.040;3.684;2022-12-19T08:44:23;1.50;;;1.40;;
36709;SDS011;22694;51.040;3.684;2022-12-19T08:46:48;1.80;;;1.60;;
36709;SDS011;22694;51.040;3.684;2022-12-19T08:49:14;2.17;;;1.52;;
36709;SDS011;22694;51.040;3.684;2022-12-19T08:51:39;2.60;;;1.50;;
36709;SDS011;22694;51.040;3.684;2022-12-19T08:54:05;1.75;;;1.38;;
36709;SDS011;22694;51.040;3.684;2022-12-19T08:56:31;1.35;;;1.25;;
36709;SDS011;22694;51.040;3.684;2022-12-19T09:04:07;1.50;;;1.30;;
36709;SDS011;22694;51.040;3.684;2022-12-19T09:09:10;1.10;;;1.00;;
36709;SDS011;22694;51.040;3.684;2022-12-19T09:11:35;1.73;;;1.20;;
36709;SDS011;22694;51.040;3.684;2022-12-19T09:14:01;1.55;;;0.80;;
36709;SDS011;22694;51.040;3.684;2022-12-19T09:16:29;1.70;;;1.17;;
36709;SDS011;22694;51.040;3.684;2022-12-19T09:18:55;1.13;;;0.82;;
36709;SDS011;22694;51.040;3.684;2022-12-19T09:21:23;1.05;;;0.88;;
36709;SDS011;22694;51.040;3.684;2022-12-19T09:23:54;1.52;;;0.90;;
36709;SDS011;22694;51.040;3.684;2022-12-19T09:26:22;1.67;;;1.10;;
36709;SDS011;22694;51.040;3.684;2022-12-19T09:28:49;1.50;;;0.98;;
36709;SDS011;22694;51.040;3.684;2022-12-19T09:31:20;2.63;;;1.30;;
36709;SDS011;22694;51.040;3.684;2022-12-19T09:33:48;4.80;;;1.05;;
36709;SDS011;22694;51.040;3.684;2022-12-19T09:36:18;2.22;;;1.27;;
36709;SDS011;22694;51.040;3.684;2022-12-19T09:38:47;3.75;;;1.42;;
36709;SDS011;22694;51.040;3.684;2022-12-19T09:41:23;2.85;;;1.02;;
36709;SDS011;22694;51.040;3.684;2022-12-19T09:46:59;2.70;;;1.58;;
36709;SDS011;22694;51.040;3.684;2022-12-19T09:49:39;4.30;;;1.60;;
36709;SDS011;22694;51.040;3.684;2022-12-19T09:52:12;5.60;;;1.45;;
36709;SDS011;22694;51.040;3.684;2022-12-19T09:55:05;2.38;;;1.13;;
36709;SDS011;22694;51.040;3.684;2022-12-19T10:03:00;1.10;;;1.00;;
36709;SDS011;22694;51.040;3.684;2022-12-19T10:05:49;3.17;;;1.48;;
36709;SDS011;22694;51.040;3.684;2022-12-19T10:08:24;2.17;;;1.27;;
36709;SDS011;22694;51.040;3.684;2022-12-19T10:30:46;2.05;;;1.35;;
36709;SDS011;22694;51.040;3.684;2022-12-19T10:36:34;3.78;;;1.52;;
36709;SDS011;22694;51.040;3.684;2022-12-19T10:42:24;2.17;;;1.02;;
36709;SDS011;22694;51.040;3.684;2022-12-19T10:45:02;6.43;;;1.17;;
36709;SDS011;22694;51.040;3.684;2022-12-19T10:47:35;3.67;;;1.20;;
36709;SDS011;22694;51.040;3.684;2022-12-19T10:50:01;2.42;;;0.90;;
36709;SDS011;22694;51.040;3.684;2022-12-19T10:58:36;2.10;;;1.70;;
36709;SDS011;22694;51.040;3.684;2022-12-19T11:01:23;4.10;;;2.33;;
36709;SDS011;22694;51.040;3.684;2022-12-19T11:09:28;5.40;;;2.30;;
36709;SDS011;22694;51.040;3.684;2022-12-19T11:12:16;15.65;;;8.82;;
36709;SDS011;22694;51.040;3.684;2022-12-19T11:14:45;70.80;;;34.53;;
36709;SDS011;22694;51.040;3.684;2022-12-19T11:17:22;51.10;;;29.27;;
36709;SDS011;22694;51.040;3.684;2022-12-19T11:19:49;35.67;;;20.33;;
36709;SDS011;22694;51.040;3.684;2022-12-19T11:22:20;28.20;;;16.48;;
36709;SDS011;22694;51.040;3.684;2022-12-19T11:24:55;22.65;;;13.20;;
36709;SDS011;22694;51.040;3.684;2022-12-19T11:30:19;16.42;;;9.38;;
36709;SDS011;22694;51.040;3.684;2022-12-19T11:32:46;18.15;;;8.45;;
36709;SDS011;22694;51.040;3.684;2022-12-19T11:35:17;15.70;;;8.40;;
36709;SDS011;22694;51.040;3.684;2022-12-19T11:43:16;11.18;;;6.18;;
36709;SDS011;22694;51.040;3.684;2022-12-19T11:54:49;10.75;;;5.63;;
36709;SDS011;22694;51.040;3.684;2022-12-19T11:57:12;9.57;;;4.63;;
36709;SDS011;22694;51.040;3.684;2022-12-19T11:59:38;8.88;;;4.93;;
36709;SDS011;22694;51.040;3.684;2022-12-19T12:05:52;7.60;;;4.60;;
36709;SDS011;22694;51.040;3.684;2022-12-19T12:11:13;8.95;;;4.30;;
36709;SDS011;22694;51.040;3.684;2022-12-19T12:14:01;9.52;;;4.57;;
36709;SDS011;22694;51.040;3.684;2022-12-19T12:16:43;4.97;;;3.47;;
36709;SDS011;22694;51.040;3.684;2022-12-19T12:30:12;4.60;;;3.08;;
36709;SDS011;22694;51.040;3.684;2022-12-19T12:35:35;4.03;;;2.55;;
36709;SDS011;22694;51.040;3.684;2022-12-19T12:44:12;3.92;;;2.50;;
36709;SDS011;22694;51.040;3.684;2022-12-19T12:46:41;5.18;;;2.65;;
36709;SDS011;22694;51.040;3.684;2022-12-19T12:49:32;3.83;;;2.47;;
36709;SDS011;22694;51.040;3.684;2022-12-19T12:52:04;3.97;;;2.80;;
36709;SDS011;22694;51.040;3.684;2022-12-19T12:54:34;3.72;;;2.50;;
36709;SDS011;22694;51.040;3.684;2022-12-19T12:57:03;4.50;;;2.47;;
36709;SDS011;22694;51.040;3.684;2022-12-19T12:59:29;5.57;;;2.38;;
36709;SDS011;22694;51.040;3.684;2022-12-19T13:02:15;3.55;;;2.53;;
36709;SDS011;22694;51.040;3.684;2022-12-19T13:04:58;3.45;;;2.35;;
36709;SDS011;22694;51.040;3.684;2022-12-19T13:07:42;4.72;;;2.72;;
36709;SDS011;22694;51.040;3.684;2022-12-19T13:10:16;6.50;;;2.80;;
36709;SDS011;22694;51.040;3.684;2022-12-19T13:12:57;4.50;;;2.40;;
36709;SDS011;22694;51.040;3.684;2022-12-19T13:15:41;3.90;;;2.35;;
36709;SDS011;22694;51.040;3.684;2022-12-19T13:18:11;2.42;;;2.03;;
36709;SDS011;22694;51.040;3.684;2022-12-19T13:20:55;3.85;;;2.28;;
36709;SDS011;22694;51.040;3.684;2022-12-19T13:26:02;4.13;;;2.05;;
36709;SDS011;22694;51.040;3.684;2022-12-19T13:31:12;3.95;;;1.90;;
36709;SDS011;22694;51.040;3.684;2022-12-19T13:42:02;2.97;;;1.75;;
36709;SDS011;22694;51.040;3.684;2022-12-19T13:44:52;3.22;;;1.90;;
36709;SDS011;22694;51.040;3.684;2022-12-19T13:47:21;2.80;;;1.77;;
36709;SDS011;22694;51.040;3.684;2022-12-19T13:49:48;2.25;;;1.95;;
36709;SDS011;22694;51.040;3.684;2022-12-19T13:52:16;2.65;;;1.83;;
36709;SDS011;22694;51.040;3.684;2022-12-19T13:54:49;2.08;;;1.60;;
36709;SDS011;22694;51.040;3.684;2022-12-19T13:57:23;2.33;;;1.58;;
36709;SDS011;22694;51.040;3.684;2022-12-19T13:59:49;2.33;;;1.73;;
36709;SDS011;22694;51.040;3.684;2022-12-19T14:02:28;3.95;;;1.70;;
36709;SDS011;22694;51.040;3.684;2022-12-19T14:04:56;3.58;;;1.95;;
36709;SDS011;22694;51.040;3.684;2022-12-19T14:07:40;1.48;;;1.35;;
36709;SDS011;22694;51.040;3.684;2022-12-19T14:10:24;2.92;;;1.90;;
36709;SDS011;22694;51.040;3.684;2022-12-19T14:12:54;3.33;;;1.40;;
36709;SDS011;22694;51.040;3.684;2022-12-19T14:15:43;3.13;;;1.55;;
36709;SDS011;22694;51.040;3.684;2022-12-19T14:18:23;3.53;;;1.65;;
36709;SDS011;22694;51.040;3.684;2022-12-19T14:20:50;2.97;;;1.40;;
36709;SDS011;22694;51.040;3.684;2022-12-19T14:23:37;3.45;;;1.52;;
36709;SDS011;22694;51.040;3.684;2022-12-19T14:26:03;1.92;;;1.20;;
36709;SDS011;22694;51.040;3.684;2022-12-19T14:28:38;3.42;;;1.55;;
36709;SDS011;22694;51.040;3.684;2022-12-19T14:31:12;2.25;;;1.20;;
36709;SDS011;22694;51.040;3.684;2022-12-19T14:33:42;2.65;;;1.52;;
36709;SDS011;22694;51.040;3.684;2022-12-19T14:36:12;4.15;;;1.88;;
36709;SDS011;22694;51.040;3.684;2022-12-19T14:38:38;2.63;;;1.60;;
36709;SDS011;22694;51.040;3.684;2022-12-19T14:41:06;2.85;;;1.40;;
36709;SDS011;22694;51.040;3.684;2022-12-19T14:44:12;1.70;;;1.17;;
36709;SDS011;22694;51.040;3.684;2022-12-19T14:46:43;1.92;;;1.30;;
36709;SDS011;22694;51.040;3.684;2022-12-19T14:49:32;1.60;;;1.05;;
36709;SDS011;22694;51.040;3.684;2022-12-19T14:52:01;1.73;;;1.20;;
36709;SDS011;22694;51.040;3.684;2022-12-19T14:57:54;2.15;;;1.35;;
36709;SDS011;22694;51.040;3.684;2022-12-19T15:00:28;1.73;;;1.27;;
36709;SDS011;22694;51.040;3.684;2022-12-19T15:02:56;2.25;;;1.20;;
36709;SDS011;22694;51.040;3.684;2022-12-19T15:05:25;2.70;;;1.08;;
36709;SDS011;22694;51.040;3.684;2022-12-19T15:07:52;1.27;;;1.17;;
36709;SDS011;22694;51.040;3.684;2022-12-19T15:10:21;2.40;;;1.08;;
36709;SDS011;22694;51.040;3.684;2022-12-19T15:15:53;3.42;;;1.30;;
36709;SDS011;22694;51.040;3.684;2022-12-19T15:21:01;3.45;;;1.35;;
36709;SDS011;22694;51.040;3.684;2022-12-19T15:23:29;4.57;;;1.20;;
36709;SDS011;22694;51.040;3.684;2022-12-19T15:25:56;1.58;;;1.00;;
36709;SDS011;22694;51.040;3.684;2022-12-19T15:28:28;2.88;;;1.38;;
36709;SDS011;22694;51.040;3.684;2022-12-19T15:31:01;2.53;;;1.20;;
36709;SDS011;22694;51.040;3.684;2022-12-19T15:33:48;1.67;;;1.27;;
36709;SDS011;22694;51.040;3.684;2022-12-19T15:36:14;2.17;;;0.95;;
36709;SDS011;22694;51.040;3.684;2022-12-19T15:38:39;2.00;;;1.00;;
36709;SDS011;22694;51.040;3.684;2022-12-19T15:41:07;1.48;;;1.05;;
36709;SDS011;22694;51.040;3.684;2022-12-19T15:43:36;2.13;;;1.17;;
36709;SDS011;22694;51.040;3.684;2022-12-19T15:46:02;1.40;;;0.75;;
36709;SDS011;22694;51.040;3.684;2022-12-19T15:48:27;2.47;;;1.20;;
36709;SDS011;22694;51.040;3.684;2022-12-19T15:50:53;6.13;;;1.42;;
36709;SDS011;22694;51.040;3.684;2022-12-19T15:53:28;6.38;;;1.70;;
36709;SDS011;22694;51.040;3.684;2022-12-19T15:55:57;2.28;;;1.00;;
36709;SDS011;22694;51.040;3.684;2022-12-19T15:58:26;3.40;;;0.90;;
36709;SDS011;22694;51.040;3.684;2022-12-19T16:00:57;3.72;;;1.13;;
36709;SDS011;22694;51.040;3.684;2022-12-19T16:03:25;2.90;;;1.33;;
36709;SDS011;22694;51.040;3.684;2022-12-19T16:05:51;3.45;;;1.05;;
36709;SDS011;22694;51.040;3.684;2022-12-19T16:08:18;4.13;;;1.10;;
36709;SDS011;22694;51.040;3.684;2022-12-19T16:10:47;2.28;;;0.95;;
36709;SDS011;22694;51.040;3.684;2022-12-19T16:13:34;1.88;;;0.98;;
36709;SDS011;22694;51.040;3.684;2022-12-19T16:15:59;3.28;;;1.20;;
36709;SDS011;22694;51.040;3.684;2022-12-19T16:18:28;1.67;;;1.00;;
36709;SDS011;22694;51.040;3.684;2022-12-19T16:20:53;2.03;;;1.00;;
36709;SDS011;22694;51.040;3.684;2022-12-19T16:23:19;1.83;;;0.90;;
36709;SDS011;22694;51.040;3.684;2022-12-19T16:25:49;3.53;;;1.27;;
36709;SDS011;22694;51.040;3.684;2022-12-19T16:28:17;2.22;;;1.02;;
36709;SDS011;22694;51.040;3.684;2022-12-19T16:30:47;2.03;;;1.08;;
36709;SDS011;22694;51.040;3.684;2022-12-19T16:33:21;2.53;;;1.00;;
36709;SDS011;22694;51.040;3.684;2022-12-19T16:35:49;2.60;;;0.98;;
36709;SDS011;22694;51.040;3.684;2022-12-19T16:38:16;1.80;;;0.80;;
36709;SDS011;22694;51.040;3.684;2022-12-19T16:40:42;3.40;;;1.00;;
36709;SDS011;22694;51.040;3.684;2022-12-19T16:43:16;1.63;;;0.90;;
36709;SDS011;22694;51.040;3.684;2022-12-19T16:45:44;2.95;;;1.58;;
36709;SDS011;22694;51.040;3.684;2022-12-19T16:48:17;5.93;;;2.30;;
36709;SDS011;22694;51.040;3.684;2022-12-19T16:50:45;5.50;;;2.40;;
36709;SDS011;22694;51.040;3.684;2022-12-19T16:53:11;5.38;;;2.72;;
36709;SDS011;22694;51.040;3.684;2022-12-19T16:55:37;5.75;;;2.60;;
36709;SDS011;22694;51.040;3.684;2022-12-19T16:58:03;6.18;;;2.70;;
36709;SDS011;22694;51.040;3.684;2022-12-19T17:00:29;3.95;;;2.28;;
36709;SDS011;22694;51.040;3.684;2022-12-19T17:03:05;4.30;;;2.35;;
36709;SDS011;22694;51.040;3.684;2022-12-19T17:05:38;3.22;;;2.00;;
36709;SDS011;22694;51.040;3.684;2022-12-19T17:08:09;2.95;;;2.30;;
36709;SDS011;22694;51.040;3.684;2022-12-19T17:10:36;3.55;;;1.60;;
36709;SDS011;22694;51.040;3.684;2022-12-19T17:13:05;4.32;;;2.40;;
36709;SDS011;22694;51.040;3.684;2022-12-19T17:15:32;4.47;;;2.05;;
36709;SDS011;22694;51.040;3.684;2022-12-19T17:18:02;4.57;;;2.03;;
36709;SDS011;22694;51.040;3.684;2022-12-19T17:20:33;2.28;;;1.63;;
36709;SDS011;22694;51.040;3.684;2022-12-19T17:23:02;2.58;;;1.77;;
36709;SDS011;22694;51.040;3.684;2022-12-19T17:25:34;3.08;;;2.10;;
36709;SDS011;22694;51.040;3.684;2022-12-19T17:28:00;2.95;;;1.90;;
36709;SDS011;22694;51.040;3.684;2022-12-19T17:30:25;2.08;;;1.67;;
36709;SDS011;22694;51.040;3.684;2022-12-19T17:32:51;3.88;;;1.88;;
36709;SDS011;22694;51.040;3.684;2022-12-19T17:35:20;3.45;;;2.03;;
36709;SDS011;22694;51.040;3.684;2022-12-19T17:37:52;3.58;;;2.20;;